Time;durP1;ratioP1;P1;durP2;ratioP2;P2;SDS_P1;SDS_P2;PMS_P1;PMS_P2;Temp;Humidity;BMP_temperature;BMP_pressure;BME280_temperature;BME280_humidity;BME280_pressure;Samples;Min_cycle;Max_cycle;Signal;HPM_P1;HPM_P2
2021/03/15 00:00:47;;;;;;;10.32;3.80;;;;;;;5.37;78.34;100687.00;4987453;28;20050;-67
2021/03/15 00:03:13;;;;;;;10.07;3.30;;;;;;;5.40;78.96;100685.28;4977099;28;20050;-66
2021/03/15 00:05:39;;;;;;;11.70;3.55;;;;;;;5.32;79.59;100679.28;4981085;28;20677;-64
2021/03/15 00:08:07;;;;;;;10.70;4.18;;;;;;;5.34;79.63;100677.56;4978851;28;20197;-67
2021/03/15 00:10:32;;;;;;;19.33;4.50;;;;;;;5.31;80.31;100674.97;4980877;28;20053;-65
2021/03/15 00:12:59;;;;;;;20.05;4.43;;;;;;;5.31;80.18;100664.66;4981312;28;20050;-66
2021/03/15 00:15:25;;;;;;;14.45;3.85;;;;;;;5.28;80.66;100673.25;4984197;28;20431;-66
2021/03/15 00:17:53;;;;;;;15.50;4.53;;;;;;;5.23;82.11;100658.63;4984306;28;20050;-67
2021/03/15 00:20:20;;;;;;;15.65;4.35;;;;;;;5.25;81.17;100657.75;4976318;28;20046;-69
2021/03/15 00:22:48;;;;;;;15.13;4.72;;;;;;;5.13;82.17;100650.88;4986203;28;20050;-67
2021/03/15 00:25:15;;;;;;;14.20;5.30;;;;;;;5.09;82.70;100648.28;4985248;28;20055;-66
2021/03/15 00:27:42;;;;;;;14.02;4.50;;;;;;;4.99;83.64;100652.59;4982326;28;20050;-68
2021/03/15 00:30:10;;;;;;;16.52;5.60;;;;;;;5.01;82.88;100645.69;4982450;28;20054;-66
2021/03/15 00:32:37;;;;;;;11.38;4.05;;;;;;;5.10;83.17;100653.44;4978049;28;20051;-65
2021/03/15 00:35:05;;;;;;;13.75;4.60;;;;;;;5.15;83.01;100650.88;5023916;22;20058;-65
2021/03/15 00:37:31;;;;;;;14.13;4.28;;;;;;;5.16;82.59;100642.28;5012502;28;20060;-66
2021/03/15 00:39:57;;;;;;;17.30;4.28;;;;;;;5.13;83.02;100652.63;5020968;28;20052;-66
2021/03/15 00:42:23;;;;;;;14.05;4.45;;;;;;;5.01;83.90;100643.13;5022256;28;20045;-66
2021/03/15 00:44:49;;;;;;;13.27;5.03;;;;;;;4.98;83.75;100638.81;5017717;28;20061;-65
2021/03/15 00:47:15;;;;;;;13.02;4.57;;;;;;;5.02;83.53;100631.94;5014166;28;20395;-66
2021/03/15 00:49:41;;;;;;;15.05;4.57;;;;;;;4.89;84.17;100638.81;5021014;28;20053;-65
2021/03/15 00:52:08;;;;;;;14.18;4.40;;;;;;;4.88;83.77;100628.50;5027141;28;20465;-65
2021/03/15 00:54:34;;;;;;;12.02;4.53;;;;;;;4.83;84.04;100628.50;5018654;28;20046;-66
2021/03/15 00:57:00;;;;;;;14.40;4.85;;;;;;;4.85;84.14;100621.59;5019969;28;20435;-65
2021/03/15 00:59:26;;;;;;;15.13;4.53;;;;;;;4.85;83.98;100624.16;5016716;28;20053;-65
2021/03/15 01:01:52;;;;;;;12.48;4.78;;;;;;;4.92;83.86;100618.19;5013463;28;20083;-66
2021/03/15 01:04:18;;;;;;;13.57;5.63;;;;;;;4.86;84.45;100617.31;5011209;28;22831;-65
2021/03/15 01:06:44;;;;;;;11.98;5.03;;;;;;;4.89;84.39;100607.88;5011799;28;20193;-65
2021/03/15 01:09:11;;;;;;;16.80;5.70;;;;;;;4.89;84.24;100601.88;5019476;28;20049;-65
2021/03/15 01:11:38;;;;;;;12.13;6.00;;;;;;;4.93;85.08;100599.31;5017865;28;20053;-66
2021/03/15 01:14:05;;;;;;;16.48;5.55;;;;;;;5.02;85.04;100593.28;5007356;28;20045;-65
2021/03/15 01:16:31;;;;;;;14.07;5.47;;;;;;;5.00;84.94;100594.16;5015579;28;20049;-65
2021/03/15 01:18:57;;;;;;;14.68;5.80;;;;;;;5.03;84.66;100600.16;5018747;28;20042;-65
2021/03/15 01:21:23;;;;;;;18.08;6.35;;;;;;;5.07;84.74;100599.31;5014356;28;20064;-65
2021/03/15 01:23:49;;;;;;;17.08;5.80;;;;;;;5.07;85.54;100594.16;5025634;28;20511;-65
2021/03/15 01:26:16;;;;;;;16.00;5.90;;;;;;;5.07;85.69;100585.56;5010414;28;20088;-65
2021/03/15 01:28:42;;;;;;;19.92;6.55;;;;;;;5.12;85.32;100579.53;5017968;28;20041;-65
2021/03/15 01:31:08;;;;;;;17.10;6.10;;;;;;;5.12;85.68;100576.13;5021372;28;20467;-65
2021/03/15 01:33:34;;;;;;;14.10;5.80;;;;;;;5.22;85.19;100566.66;5016882;28;20057;-64
2021/03/15 01:36:00;;;;;;;16.05;5.97;;;;;;;5.16;85.85;100559.78;5016625;28;20419;-65
2021/03/15 01:38:26;;;;;;;15.77;5.90;;;;;;;5.12;85.65;100573.53;5017021;28;20049;-65
2021/03/15 01:40:52;;;;;;;13.18;5.50;;;;;;;5.09;86.23;100558.06;5011008;28;20140;-66
2021/03/15 01:43:19;;;;;;;15.35;5.07;;;;;;;5.13;85.75;100558.06;5013279;28;20057;-65
2021/03/15 01:45:45;;;;;;;13.90;5.43;;;;;;;5.16;85.70;100554.63;5022568;28;20049;-65
2021/03/15 01:48:13;;;;;;;19.95;6.03;;;;;;;5.20;85.83;100556.34;5016755;28;20487;-66
2021/03/15 01:50:39;;;;;;;15.73;6.35;;;;;;;5.21;85.89;100552.03;5027277;28;20045;-66
2021/03/15 01:53:05;;;;;;;10.77;5.25;;;;;;;5.23;85.88;100551.19;5018669;28;20058;-65
2021/03/15 01:55:33;;;;;;;16.50;5.70;;;;;;;5.27;85.36;100552.91;5015808;28;20052;-66
2021/03/15 01:57:58;;;;;;;14.02;5.18;;;;;;;5.26;85.34;100548.59;5011709;28;20423;-66
2021/03/15 02:00:25;;;;;;;19.85;6.47;;;;;;;5.22;85.52;100544.31;5022583;28;20050;-66
2021/03/15 02:02:57;;;;;;;11.55;4.70;;;;;;;5.21;85.51;100552.91;5023519;28;20045;-65
2021/03/15 02:05:23;;;;;;;12.55;5.78;;;;;;;5.14;86.08;100546.88;5012285;28;20050;-66
2021/03/15 02:07:49;;;;;;;14.38;6.05;;;;;;;5.16;86.05;100540.88;5019169;28;20041;-66
2021/03/15 02:10:15;;;;;;;13.55;6.45;;;;;;;5.18;86.47;100537.44;5013361;28;20061;-67
2021/03/15 02:13:12;;;;;;;11.73;5.60;;;;;;;5.23;85.93;100525.41;5012126;28;20132;-65
2021/03/15 02:15:48;;;;;;;18.45;6.40;;;;;;;5.26;85.88;100525.38;5020457;28;20056;-66
2021/03/15 02:18:22;;;;;;;16.17;6.15;;;;;;;5.21;86.22;100526.25;5015120;28;20057;-66
2021/03/15 02:21:32;;;;;;;15.73;5.63;;;;;;;5.19;86.75;100518.53;5011718;28;20053;-66
2021/03/15 02:24:02;;;;;;;19.83;5.45;;;;;;;5.23;86.95;100519.38;5012420;28;20340;-65
2021/03/15 02:26:53;;;;;;;15.95;6.22;;;;;;;5.18;86.35;100516.81;5014504;28;20045;-65
2021/03/15 02:29:51;;;;;;;11.25;5.63;;;;;;;5.21;86.78;100511.66;5023997;28;20049;-66
2021/03/15 02:32:39;;;;;;;14.50;6.30;;;;;;;5.16;86.69;100510.78;5019532;28;20076;-65
2021/03/15 02:35:08;;;;;;;16.98;6.88;;;;;;;5.18;85.99;100511.66;5008915;28;20058;-65
2021/03/15 02:37:36;;;;;;;17.10;7.05;;;;;;;5.12;86.95;100496.19;5008959;28;20503;-65
2021/03/15 02:40:08;;;;;;;17.08;7.13;;;;;;;5.09;86.93;100498.75;5009218;28;20069;-66
2021/03/15 02:42:36;;;;;;;14.15;6.38;;;;;;;5.14;85.89;100502.22;5014578;28;20431;-66
2021/03/15 02:45:05;;;;;;;13.68;6.43;;;;;;;5.13;86.47;100497.91;5012993;28;20100;-66
2021/03/15 02:47:35;;;;;;;14.38;6.63;;;;;;;5.13;85.92;100498.75;5014410;28;20514;-66
2021/03/15 02:50:04;;;;;;;16.25;7.53;;;;;;;5.19;86.27;100503.06;5024453;28;20526;-66
2021/03/15 02:52:32;;;;;;;12.30;6.32;;;;;;;5.18;86.34;100501.34;5014277;28;20054;-65
2021/03/15 02:55:01;;;;;;;11.85;6.20;;;;;;;5.18;86.45;100503.91;5012193;28;20050;-66
2021/03/15 02:57:29;;;;;;;11.57;6.65;;;;;;;5.18;86.65;100500.50;5012885;28;20061;-65
2021/03/15 02:59:57;;;;;;;17.75;6.57;;;;;;;5.22;86.47;100502.19;5012263;28;20517;-65
2021/03/15 03:02:24;;;;;;;11.68;5.72;;;;;;;5.21;85.50;100501.34;5013637;28;20535;-65
2021/03/15 03:04:51;;;;;;;12.60;6.40;;;;;;;5.20;85.92;100499.63;5012267;28;20054;-66
2021/03/15 03:07:19;;;;;;;16.83;6.20;;;;;;;5.25;85.64;100500.47;5021196;28;20503;-65
2021/03/15 03:09:47;;;;;;;13.38;6.72;;;;;;;5.24;85.96;100505.63;5018682;28;20046;-66
2021/03/15 03:12:15;;;;;;;10.65;6.18;;;;;;;5.25;85.80;100500.47;5011037;28;20753;-65
2021/03/15 03:14:43;;;;;;;11.32;6.70;;;;;;;5.26;85.54;100507.34;5008652;28;20463;-66
2021/03/15 03:17:11;;;;;;;14.32;6.80;;;;;;;5.29;85.39;100507.34;5012052;28;20527;-66
2021/03/15 03:19:39;;;;;;;11.38;6.63;;;;;;;5.20;86.06;100509.94;5013064;28;20054;-66
2021/03/15 03:22:05;;;;;;;11.10;6.53;;;;;;;5.19;85.45;100507.38;5009539;28;20050;-67
2021/03/15 03:24:33;;;;;;;10.63;6.75;;;;;;;5.09;85.86;100509.06;5009860;28;20050;-64
2021/03/15 03:27:02;;;;;;;10.88;7.25;;;;;;;5.02;86.37;100507.38;5007339;28;20136;-66
2021/03/15 03:29:28;;;;;;;12.73;6.93;;;;;;;4.98;87.20;100509.09;5014277;28;20590;-67
2021/03/15 03:31:56;;;;;;;18.25;7.80;;;;;;;4.95;87.03;100512.50;5021611;28;20411;-64
2021/03/15 03:34:23;;;;;;;13.50;7.35;;;;;;;5.04;86.88;100503.06;5012849;28;20053;-64
2021/03/15 03:36:49;;;;;;;12.80;7.18;;;;;;;4.94;87.25;100507.34;5014177;28;20495;-65
2021/03/15 03:39:15;;;;;;;13.82;7.53;;;;;;;4.95;87.43;100514.22;5017298;28;20045;-64
2021/03/15 03:41:41;;;;;;;14.93;8.20;;;;;;;4.93;87.37;100508.22;5009648;28;20499;-66
2021/03/15 03:44:09;;;;;;;14.48;8.73;;;;;;;4.92;88.19;100515.09;5010734;28;20058;-63
2021/03/15 03:46:35;;;;;;;13.18;7.88;;;;;;;4.98;87.33;100514.25;5017003;28;20049;-63
2021/03/15 03:49:02;;;;;;;13.45;8.75;;;;;;;4.98;87.26;100509.94;5020741;28;20043;-63
2021/03/15 03:54:50;;;;;;;13.30;9.25;;;;;;;4.97;87.64;100515.94;5000754;28;20129;-64
2021/03/15 03:57:21;;;;;;;16.35;9.48;;;;;;;4.98;87.29;100520.25;5016797;28;20194;-63
2021/03/15 03:59:50;;;;;;;16.25;8.85;;;;;;;4.96;87.43;100516.81;5010760;28;20526;-61
2021/03/15 04:02:19;;;;;;;14.52;9.40;;;;;;;4.94;87.67;100518.50;5011788;28;20049;-63
2021/03/15 04:04:48;;;;;;;13.02;9.18;;;;;;;4.90;87.82;100531.41;5017495;28;20042;-63
2021/03/15 04:07:22;;;;;;;13.65;8.85;;;;;;;4.93;87.78;100532.28;5012443;28;20148;-65
2021/03/15 04:09:53;;;;;;;18.27;9.63;;;;;;;4.94;88.15;100528.81;5016913;28;20071;-63
2021/03/15 04:12:23;;;;;;;13.55;9.45;;;;;;;4.88;87.83;100539.13;5021936;28;20053;-63
2021/03/15 04:14:52;;;;;;;15.43;9.65;;;;;;;4.89;87.94;100546.00;5011594;28;20061;-64
2021/03/15 04:17:22;;;;;;;13.30;9.43;;;;;;;4.89;87.91;100548.59;5007173;28;20145;-64
2021/03/15 04:19:53;;;;;;;14.07;9.00;;;;;;;4.89;88.20;100551.16;5012234;28;20049;-64
2021/03/15 04:22:23;;;;;;;17.00;10.07;;;;;;;4.83;87.89;100557.19;5014970;28;20461;-65
2021/03/15 04:24:50;;;;;;;14.38;8.77;;;;;;;4.88;87.70;100559.75;5013334;28;20049;-64
2021/03/15 04:27:18;;;;;;;16.98;9.10;;;;;;;4.85;88.15;100564.06;5013765;28;20056;-65
2021/03/15 04:29:45;;;;;;;15.48;10.40;;;;;;;4.74;89.08;100567.47;5022638;28;20038;-65
2021/03/15 04:32:13;;;;;;;15.15;9.60;;;;;;;4.73;88.81;100580.34;5014189;28;20065;-62
2021/03/15 04:34:40;;;;;;;13.00;8.38;;;;;;;4.65;88.44;100583.75;5017225;28;20037;-66
2021/03/15 04:37:10;;;;;;;10.38;6.28;;;;;;;4.62;87.52;100599.22;5015543;28;20124;-64
2021/03/15 04:39:37;;;;;;;9.57;5.80;;;;;;;4.54;86.75;100585.47;5015483;28;20038;-64
2021/03/15 04:42:05;;;;;;;9.45;5.72;;;;;;;4.52;86.55;100587.16;5018647;28;20100;-64
2021/03/15 04:44:34;;;;;;;10.10;5.97;;;;;;;4.59;87.42;100593.22;5015876;28;20041;-64
2021/03/15 04:47:01;;;;;;;9.90;5.80;;;;;;;4.64;86.72;100588.91;5023253;28;20153;-65
2021/03/15 04:49:28;;;;;;;8.05;4.72;;;;;;;4.67;86.32;100592.34;5015478;28;20497;-66
2021/03/15 04:51:55;;;;;;;8.85;4.93;;;;;;;4.71;85.93;100587.22;5015739;28;20052;-65
2021/03/15 04:54:21;;;;;;;11.23;5.05;;;;;;;4.69;85.58;100594.94;5014785;28;20050;-64
2021/03/15 04:56:49;;;;;;;8.15;5.10;;;;;;;4.70;86.04;100598.38;5020895;28;20056;-64
2021/03/15 04:59:18;;;;;;;10.18;5.43;;;;;;;4.69;86.28;100600.09;5013592;28;20084;-64
2021/03/15 05:01:43;;;;;;;8.23;5.35;;;;;;;4.73;86.08;100600.97;5013473;28;20056;-65
2021/03/15 05:04:11;;;;;;;9.23;5.60;;;;;;;4.73;86.11;100611.28;5018328;28;20045;-63
2021/03/15 05:06:39;;;;;;;9.23;5.47;;;;;;;4.76;86.60;100617.28;5013551;28;20512;-64
2021/03/15 05:09:08;;;;;;;11.48;5.53;;;;;;;4.78;86.42;100615.59;5020329;28;20042;-64
2021/03/15 05:11:36;;;;;;;9.38;5.72;;;;;;;4.78;85.94;100620.75;5015566;28;20470;-65
2021/03/15 05:14:04;;;;;;;9.57;5.88;;;;;;;4.79;85.55;100616.44;5018415;28;20503;-65
2021/03/15 05:16:34;;;;;;;12.23;5.55;;;;;;;4.82;85.81;100625.03;5016474;28;20049;-64
2021/03/15 05:19:01;;;;;;;10.20;5.40;;;;;;;4.88;85.99;100641.38;5011386;28;20104;-64
2021/03/15 05:21:27;;;;;;;8.35;5.40;;;;;;;4.85;86.01;100631.91;5009136;28;20620;-65
2021/03/15 05:23:55;;;;;;;11.45;6.63;;;;;;;4.85;86.19;100633.63;5010051;28;20053;-65
2021/03/15 05:26:22;;;;;;;9.63;5.68;;;;;;;4.82;86.69;100643.06;5013727;28;20168;-64
2021/03/15 05:28:48;;;;;;;8.57;5.15;;;;;;;4.79;86.44;100652.50;5010771;28;20050;-65
2021/03/15 05:31:17;;;;;;;8.50;5.43;;;;;;;4.76;85.90;100642.19;5012945;28;20522;-65
2021/03/15 05:33:45;;;;;;;11.63;5.22;;;;;;;4.72;86.13;100643.06;5013202;28;20112;-64
2021/03/15 05:36:13;;;;;;;8.80;4.60;;;;;;;4.72;86.56;100645.63;5020130;28;20058;-66
2021/03/15 05:38:39;;;;;;;6.82;3.92;;;;;;;4.64;86.37;100651.59;5010397;28;20056;-66
2021/03/15 05:41:09;;;;;;;6.50;4.32;;;;;;;4.60;86.42;100659.31;5010548;28;20065;-65
2021/03/15 05:43:49;;;;;;;7.75;4.07;;;;;;;4.69;86.52;100667.09;5008823;28;20072;-67
2021/03/15 05:46:47;;;;;;;8.07;4.43;;;;;;;4.64;87.13;100663.63;5013117;28;20056;-65
2021/03/15 05:49:54;;;;;;;9.55;4.72;;;;;;;4.63;86.64;100669.63;5019997;28;20057;-66
2021/03/15 05:52:37;;;;;;;8.55;4.53;;;;;;;4.65;86.95;100676.50;5016406;28;20180;-65
2021/03/15 05:55:32;;;;;;;6.28;3.95;;;;;;;4.70;86.90;100679.09;5021634;28;20097;-66
2021/03/15 05:58:32;;;;;;;6.85;4.53;;;;;;;4.66;86.50;100688.53;4977866;28;20041;-66
2021/03/15 06:01:21;;;;;;;8.82;4.13;;;;;;;4.69;86.93;100686.81;5015481;28;20450;-65
2021/03/15 06:04:22;;;;;;;9.82;4.55;;;;;;;4.61;87.13;100682.50;5022291;28;20075;-66
2021/03/15 06:06:48;;;;;;;8.25;4.90;;;;;;;4.68;87.64;100685.97;5014731;28;20606;-65
2021/03/15 06:09:19;;;;;;;10.25;5.45;;;;;;;4.76;87.42;100684.28;5017275;28;20093;-67
2021/03/15 06:11:49;;;;;;;12.63;6.22;;;;;;;4.76;87.39;100681.72;5019262;28;20064;-65
2021/03/15 06:14:16;;;;;;;12.05;5.78;;;;;;;4.82;87.40;100686.03;5017648;28;21000;-66
2021/03/15 06:16:43;;;;;;;11.23;6.65;;;;;;;4.83;87.79;100691.19;5011222;28;20049;-65
2021/03/15 06:19:09;;;;;;;12.65;6.68;;;;;;;4.81;87.94;100692.88;5015752;28;20049;-66
2021/03/15 06:21:35;;;;;;;12.25;6.38;;;;;;;4.82;88.09;100699.75;5020963;28;20053;-66
2021/03/15 06:24:01;;;;;;;13.68;6.05;;;;;;;4.89;87.53;100710.97;5006943;28;20054;-66
2021/03/15 06:26:30;;;;;;;12.68;6.60;;;;;;;4.92;87.47;100710.97;5009486;28;20512;-66
2021/03/15 06:28:59;;;;;;;16.00;6.78;;;;;;;4.94;87.19;100719.56;5010531;28;20042;-66
2021/03/15 06:31:28;;;;;;;12.00;6.70;;;;;;;5.00;86.94;100710.16;5010476;28;20058;-65
2021/03/15 06:33:54;;;;;;;11.05;6.78;;;;;;;5.00;87.37;100717.88;5010732;28;20061;-65
2021/03/15 06:36:21;;;;;;;11.98;7.28;;;;;;;5.02;86.99;100721.31;5013015;28;20042;-67
2021/03/15 06:38:47;;;;;;;13.40;7.78;;;;;;;5.04;87.57;100723.03;5014538;28;20053;-65
2021/03/15 06:41:15;;;;;;;13.93;7.38;;;;;;;5.14;86.57;100731.69;5008303;28;20064;-64
2021/03/15 06:43:41;;;;;;;14.20;7.40;;;;;;;5.18;86.74;100728.25;5010458;28;20053;-64
2021/03/15 06:46:07;;;;;;;13.98;8.13;;;;;;;5.20;87.16;100736.84;5010876;28;20057;-66
2021/03/15 06:48:34;;;;;;;14.48;7.78;;;;;;;5.13;86.63;100735.13;5016148;28;20129;-66
2021/03/15 06:51:00;;;;;;;18.25;7.28;;;;;;;5.16;86.54;100735.09;5008170;28;20046;-66
2021/03/15 06:53:36;;;;;;;13.50;8.05;;;;;;;5.12;86.17;100743.72;5011637;28;20077;-65
2021/03/15 06:56:02;;;;;;;17.00;7.15;;;;;;;5.06;86.56;100741.97;5009141;28;20077;-67
2021/03/15 06:58:31;;;;;;;12.48;6.95;;;;;;;5.08;86.80;100745.41;5021030;28;20054;-66
2021/03/15 07:01:18;;;;;;;15.52;6.80;;;;;;;5.10;86.57;100754.00;5018501;28;20046;-68
2021/03/15 07:03:47;;;;;;;12.80;7.88;;;;;;;5.06;87.34;100749.69;5016907;28;20459;-66
2021/03/15 07:06:15;;;;;;;11.73;7.35;;;;;;;5.13;86.97;100760.91;5017656;28;20068;-66
2021/03/15 07:08:41;;;;;;;16.90;8.13;;;;;;;5.16;87.03;100763.47;5013311;28;20042;-67
2021/03/15 07:11:18;;;;;;;15.75;7.30;;;;;;;5.17;86.87;100764.34;5019939;28;20060;-65
2021/03/15 07:13:44;;;;;;;16.48;7.82;;;;;;;5.16;86.62;100767.78;5013984;28;20050;-66
2021/03/15 07:16:22;;;;;;;15.00;7.40;;;;;;;5.25;86.03;100771.22;5019505;28;20042;-67
2021/03/15 07:18:48;;;;;;;16.45;8.02;;;;;;;5.34;85.97;100775.56;5014080;28;20129;-66
2021/03/15 07:21:15;;;;;;;14.75;7.38;;;;;;;5.31;85.69;100775.56;5011692;28;20054;-67
2021/03/15 07:23:43;;;;;;;21.20;6.68;;;;;;;5.38;85.08;100779.03;5010452;28;20049;-66
2021/03/15 07:26:10;;;;;;;16.48;6.97;;;;;;;5.38;84.55;100785.06;5010928;28;20041;-67
2021/03/15 07:28:36;;;;;;;13.98;5.93;;;;;;;5.32;85.33;100791.91;5010548;28;20514;-66
2021/03/15 07:31:21;;;;;;;13.60;5.93;;;;;;;5.52;84.76;100792.81;5016646;28;20128;-66
2021/03/15 07:34:08;;;;;;;19.33;6.45;;;;;;;5.53;84.61;100791.97;5019079;28;20060;-67
2021/03/15 07:36:45;;;;;;;13.82;5.95;;;;;;;5.50;83.80;100797.13;5020490;28;20095;-67
2021/03/15 07:39:12;;;;;;;12.70;6.60;;;;;;;5.48;84.63;100803.13;5015320;28;20435;-66
2021/03/15 07:41:38;;;;;;;15.02;6.85;;;;;;;5.60;84.37;100795.41;5016911;28;20507;-67
2021/03/15 07:44:18;;;;;;;17.05;7.18;;;;;;;5.71;84.53;100809.19;5020266;28;20053;-66
2021/03/15 07:46:45;;;;;;;19.58;7.22;;;;;;;5.67;84.15;100812.66;5016560;28;20049;-67
2021/03/15 07:49:23;;;;;;;15.38;6.63;;;;;;;5.74;84.13;100816.94;5020096;28;20045;-66
2021/03/15 07:51:55;;;;;;;15.13;7.57;;;;;;;5.73;83.61;100822.13;5013130;28;20061;-68
2021/03/15 07:54:26;;;;;;;15.38;7.85;;;;;;;5.74;83.36;100821.22;5011158;28;20045;-66
2021/03/15 07:57:20;;;;;;;15.07;8.18;;;;;;;5.73;83.37;100832.44;5010882;28;20049;-67
2021/03/15 07:59:48;;;;;;;19.45;7.32;;;;;;;5.65;83.67;100841.88;5012841;28;20046;-67
2021/03/15 08:02:17;;;;;;;21.88;6.63;;;;;;;5.62;83.84;100845.31;5014561;28;20641;-67
2021/03/15 08:04:44;;;;;;;18.33;8.13;;;;;;;5.77;84.58;100847.06;5024575;28;20068;-67
2021/03/15 08:07:12;;;;;;;20.30;7.60;;;;;;;5.82;83.19;100852.22;5010550;28;20100;-65
2021/03/15 08:09:38;;;;;;;13.77;6.45;;;;;;;5.79;80.79;100849.66;5008721;28;20049;-66
2021/03/15 08:12:08;;;;;;;16.88;6.50;;;;;;;5.71;81.78;100858.22;5008520;28;20088;-66
2021/03/15 08:14:37;;;;;;;14.05;7.07;;;;;;;5.70;82.63;100861.66;5006808;28;20054;-66
2021/03/15 08:17:03;;;;;;;15.95;7.53;;;;;;;5.72;82.76;100859.09;5009902;28;20461;-66
2021/03/15 08:19:32;;;;;;;18.65;8.05;;;;;;;5.81;82.35;100864.28;5007074;28;20053;-65
2021/03/15 08:22:01;;;;;;;24.48;7.70;;;;;;;5.91;82.46;100875.47;5017613;28;20069;-67
2021/03/15 08:24:28;;;;;;;16.42;7.93;;;;;;;6.09;81.88;100868.69;5010084;28;20403;-67
2021/03/15 08:26:57;;;;;;;24.75;8.10;;;;;;;5.99;82.28;100873.81;5006796;28;20049;-67
2021/03/15 08:29:23;;;;;;;16.50;7.72;;;;;;;6.15;81.31;100885.03;5009549;28;20049;-66
2021/03/15 08:31:53;;;;;;;18.35;7.45;;;;;;;6.26;81.26;100879.91;5015550;28;20148;-66
2021/03/15 08:34:19;;;;;;;12.55;6.35;;;;;;;6.40;80.97;100879.03;5015711;28;20521;-66
2021/03/15 08:36:46;;;;;;;24.48;7.57;;;;;;;6.42;80.24;100883.34;5008644;28;20049;-67
2021/03/15 08:39:32;;;;;;;17.98;7.75;;;;;;;6.43;79.78;100885.06;5007869;28;20046;-67
2021/03/15 08:42:21;;;;;;;21.40;7.90;;;;;;;6.32;79.73;100882.47;5006555;28;20049;-66
2021/03/15 08:44:48;;;;;;;19.27;7.38;;;;;;;6.36;79.94;100894.53;5005775;28;20069;-67
2021/03/15 08:48:01;;;;;;;20.42;8.15;;;;;;;6.37;79.87;100896.28;5002739;28;20469;-67
2021/03/15 08:50:44;;;;;;;17.30;6.13;;;;;;;6.35;78.18;100895.41;5004916;28;20050;-67
2021/03/15 08:53:10;;;;;;;19.48;6.28;;;;;;;6.34;78.46;100903.13;5008321;28;20049;-66
2021/03/15 08:55:48;;;;;;;28.58;8.15;;;;;;;6.21;79.22;100907.41;5007988;28;20045;-67
2021/03/15 08:58:37;;;;;;;18.95;5.95;;;;;;;6.10;78.31;100901.38;5001955;28;20499;-67
2021/03/15 09:01:03;;;;;;;19.17;6.20;;;;;;;5.97;78.91;100909.09;5006708;28;20232;-66
2021/03/15 09:03:49;;;;;;;14.57;5.57;;;;;;;6.04;79.41;100907.38;5004241;28;20115;-67
2021/03/15 09:06:36;;;;;;;16.60;6.32;;;;;;;5.93;79.59;100901.31;5010476;28;20053;-66
2021/03/15 09:09:04;;;;;;;12.05;5.13;;;;;;;5.95;79.31;100908.22;5007968;28;20656;-66
2021/03/15 09:11:49;;;;;;;14.70;5.80;;;;;;;5.94;79.36;100914.22;5018805;28;20410;-68
2021/03/15 09:14:33;;;;;;;15.60;6.25;;;;;;;6.01;80.00;100904.81;5008839;28;20164;-67
2021/03/15 09:17:01;;;;;;;16.67;5.97;;;;;;;6.06;79.85;100908.25;5010581;28;20081;-67
2021/03/15 09:19:31;;;;;;;20.20;6.25;;;;;;;6.11;79.93;100905.69;5007000;28;20565;-67
2021/03/15 09:21:58;;;;;;;18.17;5.85;;;;;;;6.20;79.14;100903.13;5009127;28;20128;-67
2021/03/15 09:24:50;;;;;;;20.98;6.35;;;;;;;6.50;79.52;100907.47;5006084;28;20842;-67
2021/03/15 09:27:28;;;;;;;17.00;4.85;;;;;;;6.74;76.93;100899.69;5010931;28;20045;-67
2021/03/15 09:29:56;;;;;;;15.63;4.85;;;;;;;6.93;75.21;100906.56;5011983;28;20104;-67
2021/03/15 09:32:27;;;;;;;15.77;4.35;;;;;;;6.88;74.54;100907.44;5011380;28;20061;-67
2021/03/15 09:34:54;;;;;;;11.05;3.97;;;;;;;6.91;72.12;100907.44;5016429;28;20053;-66
2021/03/15 09:37:20;;;;;;;13.75;4.78;;;;;;;6.84;72.53;100911.75;5010490;28;20442;-67
2021/03/15 09:39:47;;;;;;;21.17;4.25;;;;;;;6.81;72.49;100909.16;5008792;28;20049;-67
2021/03/15 09:42:13;;;;;;;13.98;4.07;;;;;;;6.85;73.22;100913.47;5014236;28;20061;-67
2021/03/15 09:44:42;;;;;;;15.98;3.42;;;;;;;6.75;73.30;100915.19;5025190;22;20054;-65
2021/03/15 09:47:09;;;;;;;16.48;3.17;;;;;;;6.69;74.84;100920.38;4994991;28;20541;-63
2021/03/15 09:49:38;;;;;;;16.13;3.58;;;;;;;6.69;76.25;100918.66;4999398;28;20053;-64
2021/03/15 09:52:15;;;;;;;21.48;3.95;;;;;;;6.89;75.45;100922.94;5005596;28;20284;-62
2021/03/15 09:54:44;;;;;;;16.85;3.30;;;;;;;6.88;72.98;100921.25;5002491;28;20420;-64
2021/03/15 09:57:10;;;;;;;18.48;2.80;;;;;;;6.89;73.33;100922.09;4999312;28;20953;-64
2021/03/15 09:59:37;;;;;;;13.77;3.40;;;;;;;6.95;74.04;100919.50;4997563;28;20505;-65
2021/03/15 10:02:04;;;;;;;15.38;3.30;;;;;;;7.06;73.30;100925.50;4999905;28;20046;-66
2021/03/15 10:04:33;;;;;;;19.83;3.55;;;;;;;7.12;72.43;100930.69;4994994;28;20046;-64
2021/03/15 10:07:00;;;;;;;14.07;4.45;;;;;;;7.04;70.61;100923.81;4997838;28;20053;-64
2021/03/15 10:09:26;;;;;;;14.02;2.40;;;;;;;7.13;72.33;100929.84;5000040;28;20594;-61
2021/03/15 10:11:52;;;;;;;14.57;2.92;;;;;;;7.16;70.12;100926.38;4996814;28;20069;-64
2021/03/15 10:14:20;;;;;;;17.80;2.33;;;;;;;7.18;71.47;100932.41;4998637;28;20057;-63
2021/03/15 10:16:57;;;;;;;14.40;2.70;;;;;;;7.27;71.66;100927.22;4995449;28;20089;-63
2021/03/15 10:19:27;;;;;;;18.40;3.08;;;;;;;7.38;72.42;100931.50;5001057;28;20053;-66
2021/03/15 10:21:53;;;;;;;11.63;2.15;;;;;;;7.40;72.63;100943.56;5001373;28;20148;-62
2021/03/15 10:24:32;;;;;;;12.68;2.72;;;;;;;7.30;71.80;100934.09;5001908;28;20491;-65
2021/03/15 10:26:59;;;;;;;14.60;2.13;;;;;;;7.39;71.64;100944.41;4995585;28;20423;-64
2021/03/15 10:29:26;;;;;;;13.45;2.55;;;;;;;7.23;71.21;100945.34;4995985;28;20415;-65
2021/03/15 10:31:52;;;;;;;10.95;1.92;;;;;;;7.10;70.39;100939.28;4997668;28;20057;-65
2021/03/15 10:34:22;;;;;;;8.77;1.77;;;;;;;7.01;71.62;100945.38;4996161;28;20396;-64
2021/03/15 10:36:49;;;;;;;15.82;2.40;;;;;;;7.05;70.91;100947.06;4998163;28;20104;-59
2021/03/15 10:39:16;;;;;;;9.90;2.25;;;;;;;7.08;69.46;100938.47;4990118;28;20572;-66
2021/03/15 10:41:42;;;;;;;11.38;2.28;;;;;;;7.29;70.12;100938.41;4997452;28;20350;-63
2021/03/15 10:44:10;;;;;;;12.60;1.45;;;;;;;7.31;69.45;100941.00;4999666;28;20054;-63
2021/03/15 10:46:45;;;;;;;14.05;2.22;;;;;;;7.36;67.72;100948.75;4993908;28;20050;-63
2021/03/15 10:49:15;;;;;;;;;;;;;;;7.29;67.04;100940.13;4997064;28;20081;-62
2021/03/15 10:51:42;;;;;;;14.45;1.92;;;;;;;7.38;67.80;100945.28;5000323;28;19925;-57
2021/03/15 10:54:09;;;;;;;13.23;1.42;;;;;;;7.27;67.59;100947.03;5004766;28;20052;-62
2021/03/15 10:56:35;;;;;;;14.55;2.58;;;;;;;7.30;67.40;100947.03;5001775;28;20120;-61
2021/03/15 10:59:01;;;;;;;16.10;2.08;;;;;;;7.43;67.63;100942.69;5005803;28;20491;-63
2021/03/15 11:01:27;;;;;;;10.88;1.90;;;;;;;7.43;66.79;100948.75;4997465;28;20518;-62
2021/03/15 11:04:08;;;;;;;9.25;1.13;;;;;;;7.46;66.60;100948.72;5005482;28;20061;-64
2021/03/15 11:06:34;;;;;;;13.13;1.48;;;;;;;7.61;67.03;100955.56;5003986;28;21308;-65
2021/03/15 11:09:01;;;;;;;16.83;1.88;;;;;;;7.65;66.10;100952.97;5003403;28;20049;-63
2021/03/15 11:11:29;;;;;;;13.20;1.88;;;;;;;7.66;66.05;100949.53;5005319;28;20053;-66
2021/03/15 11:13:57;;;;;;;7.35;1.05;;;;;;;7.63;65.38;100955.56;5008469;28;20053;-65
2021/03/15 11:16:26;;;;;;;9.82;2.25;;;;;;;7.70;63.66;100949.50;5004541;28;20057;-65
2021/03/15 11:19:07;;;;;;;8.82;1.58;;;;;;;7.57;63.04;100960.75;5001656;28;20050;-62
2021/03/15 11:21:35;;;;;;;8.02;2.03;;;;;;;7.68;63.40;100959.00;5003454;28;20050;-66
2021/03/15 11:24:01;;;;;;;5.47;1.02;;;;;;;7.71;62.43;100958.13;5000470;28;20060;-65
2021/03/15 11:26:28;;;;;;;6.32;1.15;;;;;;;7.85;62.70;100955.47;4998828;28;20568;-65
2021/03/15 11:28:56;;;;;;;15.48;2.08;;;;;;;7.78;61.48;100959.84;5004469;28;20057;-66
2021/03/15 11:31:24;;;;;;;7.72;1.13;;;;;;;7.84;63.21;100964.97;5006265;28;20049;-65
2021/03/15 11:33:51;;;;;;;9.52;1.23;;;;;;;7.88;61.86;100961.53;4999258;28;20038;-63
2021/03/15 11:36:22;;;;;;;7.00;1.38;;;;;;;7.92;61.74;100960.63;5008143;28;20053;-64
2021/03/15 11:38:50;;;;;;;8.57;1.00;;;;;;;7.90;62.59;100971.88;5002732;28;20508;-63
2021/03/15 11:41:17;;;;;;;10.32;1.75;;;;;;;7.89;62.52;100970.13;5001100;28;20053;-66
2021/03/15 11:43:44;;;;;;;8.63;2.05;;;;;;;8.01;62.67;100977.84;5002661;28;20495;-64